Time;durP1;ratioP1;P1;durP2;ratioP2;P2;SDS_P1;SDS_P2;PMS_P1;PMS_P2;Temp;Humidity;BMP_temperature;BMP_pressure;BME280_temperature;BME280_humidity;BME280_pressure;Samples;Min_cycle;Max_cycle;Signal;HPM_P1;HPM_P2
2022/05/09 00:00:58;;;;;;;;;;;;;;;;;;5059577;28;19919;-82
2022/05/09 00:03:23;;;;;;;;;;;;;;;;;;5057904;28;20257;-82
2022/05/09 00:05:49;;;;;;;;;;;;;;;;;;5057935;28;19919;-82
2022/05/09 00:08:14;;;;;;;;;;;;;;;;;;5056458;28;20006;-81
2022/05/09 00:10:39;;;;;;;;;;;;;;;;;;5058085;28;19913;-80
2022/05/09 00:13:05;;;;;;;;;;;;;;;;;;5073296;28;19917;-82
2022/05/09 00:15:31;;;;;;;;;;;;;;;;;;5073147;28;19916;-81
2022/05/09 00:17:56;;;;;;;;;;;;;;;;;;5057770;28;19919;-81
2022/05/09 00:20:21;;;;;;;;;;;;;;;;;;5056950;28;19975;-81
2022/05/09 00:22:51;;;;;;;;;;;;;;;;;;5061773;28;19970;-80
2022/05/09 00:25:17;;;;;;;;;;;;;;;;;;5056402;28;19992;-82
2022/05/09 00:27:42;;;;;;;;;;;;;;;;;;5056553;28;19944;-81
2022/05/09 00:30:08;;;;;;;;;;;;;;;;;;5056294;28;19921;-81
2022/05/09 00:32:33;;;;;;;;;;;;;;;;;;5056647;28;20011;-81
2022/05/09 00:34:59;;;;;;;;;;;;;;;;;;5057364;28;19919;-80
2022/05/09 00:37:24;;;;;;;;;;;;;;;;;;5057128;28;19912;-82
2022/05/09 00:39:50;;;;;;;;;;;;;;;;;;5056147;28;19970;-82
2022/05/09 00:42:16;;;;;;;;;;;;;;;;;;5056163;28;20374;-82
2022/05/09 00:44:42;;;;;;;;;;;;;;;;;;5057251;28;19944;-82
2022/05/09 00:47:07;;;;;;;;;;;;;;;;;;5057164;28;19923;-81
2022/05/09 00:49:47;;;;;;;;;;;;;;;;;;5057186;28;19955;-82
2022/05/09 00:52:15;;;;;;;;;;;;;;;;;;5055645;28;20428;-82
2022/05/09 00:54:47;;;;;;;;;;;;;;;;;;5056963;28;20597;-82
2022/05/09 00:57:16;;;;;;;;;;;;;;;;;;5056868;28;19959;-81
2022/05/09 00:59:43;;;;;;;;;;;;;;;;;;5057022;28;19962;-82
2022/05/09 01:02:09;;;;;;;;;;;;;;;;;;5058780;28;19912;-81
2022/05/09 01:04:37;;;;;;;;;;;;;;;;;;5055643;28;20364;-82
2022/05/09 01:07:03;;;;;;;;;;;;;;;;;;5056588;28;19912;-81
2022/05/09 01:09:28;;;;;;;;;;;;;;;;;;5057000;28;20353;-81
2022/05/09 01:11:53;;;;;;;;;;;;;;;;;;5072285;28;19952;-82
2022/05/09 01:14:20;;;;;;;;;;;;;;;;;;5056552;28;19917;-82
2022/05/09 01:16:46;;;;;;;;;;;;;;;;;;5055356;28;19912;-82
2022/05/09 01:19:18;;;;;;;;;;;;;;;;;;5056843;28;19913;-82
2022/05/09 01:21:43;;;;;;;;;;;;;;;;;;5057184;28;19909;-81
2022/05/09 01:24:17;;;;;;;;;;;;;;;;;;5055427;28;19970;-82
2022/05/09 01:26:43;;;;;;;;;;;;;;;;;;5055207;28;19909;-81
2022/05/09 01:29:17;;;;;;;;;;;;;;;;;;5055224;28;19916;-82
2022/05/09 01:31:42;;;;;;;;;;;;;;;;;;5056322;28;19919;-82
2022/05/09 01:34:09;;;;;;;;;;;;;;;;;;5055054;28;19959;-82
2022/05/09 01:36:34;;;;;;;;;;;;;;;;;;5054772;28;19916;-82
2022/05/09 01:39:00;;;;;;;;;;;;;;;;;;5038458;28;19909;-82
2022/05/09 01:41:26;;;;;;;;;;;;;;;;;;5056056;28;20272;-81
2022/05/09 01:43:52;;;;;;;;;;;;;;;;;;5055695;28;19912;-83
2022/05/09 01:46:18;;;;;;;;;;;;;;;;;;5055095;28;19919;-82
2022/05/09 01:51:27;;;;;;;;;;;;;;;;;;5054725;28;20295;-81
2022/05/09 01:53:53;;;;;;;;;;;;;;;;;;5055854;28;19991;-83
2022/05/09 01:56:19;;;;;;;;;;;;;;;;;;5055838;28;19908;-81
2022/05/09 01:58:44;;;;;;;;;;;;;;;;;;5037965;28;19919;-82
2022/05/09 02:01:09;;;;;;;;;;;;;;;;;;5071017;28;19971;-82
2022/05/09 02:03:35;;;;;;;;;;;;;;;;;;5056747;28;19909;-82
2022/05/09 02:06:01;;;;;;;;;;;;;;;;;;5055521;28;19995;-82
2022/05/09 02:08:26;;;;;;;;;;;;;;;;;;5055472;28;19915;-82
2022/05/09 02:10:51;;;;;;;;;;;;;;;;;;5055805;28;20321;-83
2022/05/09 02:13:17;;;;;;;;;;;;;;;;;;5055336;28;19981;-82
2022/05/09 02:15:42;;;;;;;;;;;;;;;;;;5055684;28;19913;-82
2022/05/09 02:18:07;;;;;;;;;;;;;;;;;;5055046;28;19916;-83
2022/05/09 02:20:33;;;;;;;;;;;;;;;;;;5055402;28;19969;-82
2022/05/09 02:22:58;;;;;;;;;;;;;;;;;;5073199;28;20235;-81
2022/05/09 02:25:29;;;;;;;;;;;;;;;;;;5054715;28;19919;-81
2022/05/09 02:27:54;;;;;;;;;;;;;;;;;;5055285;28;19912;-82
2022/05/09 02:30:20;;;;;;;;;;;;;;;;;;5055135;28;19920;-82
2022/05/09 02:32:45;;;;;;;;;;;;;;;;;;5055163;28;19919;-82
2022/05/09 02:35:10;;;;;;;;;;;;;;;;;;5055417;28;20383;-81
2022/05/09 02:37:36;;;;;;;;;;;;;;;;;;5055200;28;19913;-81
2022/05/09 02:40:01;;;;;;;;;;;;;;;;;;5055390;28;19913;-82
2022/05/09 02:42:26;;;;;;;;;;;;;;;;;;5055298;28;19913;-80
2022/05/09 02:44:54;;;;;;;;;;;;;;;;;;5055059;28;20313;-82
2022/05/09 02:47:20;;;;;;;;;;;;;;;;;;5053501;28;19999;-82
2022/05/09 02:49:46;;;;;;;;;;;;;;;;;;5053788;28;20254;-82
2022/05/09 02:52:12;;;;;;;;;;;;;;;;;;5053850;28;19912;-82
2022/05/09 02:54:37;;;;;;;;;;;;;;;;;;5055208;28;19912;-81
2022/05/09 02:57:02;;;;;;;;;;;;;;;;;;5070145;28;19912;-82
2022/05/09 02:59:28;;;;;;;;;;;;;;;;;;5057187;28;20003;-81
2022/05/09 03:01:53;;;;;;;;;;;;;;;;;;5059205;28;20235;-83
2022/05/09 03:07:03;;;;;;;;;;;;;;;;;;5063184;28;20008;-82
2022/05/09 03:09:28;;;;;;;;;;;;;;;;;;5055004;28;19952;-82
2022/05/09 03:11:53;;;;;;;;;;;;;;;;;;5053317;28;19913;-82
2022/05/09 03:14:19;;;;;;;;;;;;;;;;;;5054482;28;20306;-82
2022/05/09 03:16:44;;;;;;;;;;;;;;;;;;5054519;28;20298;-82
2022/05/09 03:19:09;;;;;;;;;;;;;;;;;;5054679;28;20319;-81
2022/05/09 03:21:34;;;;;;;;;;;;;;;;;;5070337;28;19986;-82
2022/05/09 03:24:00;;;;;;;;;;;;;;;;;;5056794;28;20293;-81
2022/05/09 03:26:25;;;;;;;;;;;;;;;;;;5054591;28;19913;-82
2022/05/09 03:28:50;;;;;;;;;;;;;;;;;;5053424;28;20324;-81
2022/05/09 03:31:16;;;;;;;;;;;;;;;;;;5054330;28;19920;-82
2022/05/09 03:33:41;;;;;;;;;;;;;;;;;;5054760;28;19913;-81
2022/05/09 03:36:07;;;;;;;;;;;;;;;;;;5037435;28;19919;-82
2022/05/09 03:38:33;;;;;;;;;;;;;;;;;;5053455;28;20007;-82
2022/05/09 03:40:58;;;;;;;;;;;;;;;;;;5054571;28;19919;-81
2022/05/09 03:43:24;;;;;;;;;;;;;;;;;;5053949;28;20385;-82
2022/05/09 03:45:50;;;;;;;;;;;;;;;;;;5054919;28;19917;-82
2022/05/09 03:48:15;;;;;;;;;;;;;;;;;;5053550;28;19920;-81
2022/05/09 03:50:40;;;;;;;;;;;;;;;;;;5054390;28;20293;-82
2022/05/09 03:53:06;;;;;;;;;;;;;;;;;;5054291;28;20241;-82
2022/05/09 03:55:33;;;;;;;;;;;;;;;;;;5053210;28;19919;-82
2022/05/09 03:57:58;;;;;;;;;;;;;;;;;;5054288;28;19913;-82
2022/05/09 04:00:25;;;;;;;;;;;;;;;;;;5054460;28;20304;-82
2022/05/09 04:02:50;;;;;;;;;;;;;;;;;;5053058;28;19909;-82
2022/05/09 04:05:17;;;;;;;;;;;;;;;;;;5054484;28;19913;-81
2022/05/09 04:07:46;;;;;;;;;;;;;;;;;;5054491;28;20011;-81
2022/05/09 04:10:12;;;;;;;;;;;;;;;;;;5058049;28;20348;-81
2022/05/09 04:12:38;;;;;;;;;;;;;;;;;;5057753;28;19920;-82
2022/05/09 04:17:47;;;;;;;;;;;;;;;;;;5057704;28;20257;-79
2022/05/09 04:20:13;;;;;;;;;;;;;;;;;;5057592;28;19913;-78
2022/05/09 04:22:40;;;;;;;;;;;;;;;;;;5073242;28;19919;-80
2022/05/09 04:25:05;;;;;;;;;;;;;;;;;;5057406;28;19919;-78
2022/05/09 04:27:32;;;;;;;;;;;;;;;;;;5057457;28;19912;-78
2022/05/09 04:29:58;;;;;;;;;;;;;;;;;;5057471;28;19913;-77
2022/05/09 04:32:24;;;;;;;;;;;;;;;;;;5057531;28;19920;-77
2022/05/09 04:34:49;;;;;;;;;;;;;;;;;;5045480;28;19960;-78
2022/05/09 04:37:14;;;;;;;;;;;;;;;;;;5036590;28;19913;-78
2022/05/09 04:39:41;;;;;;;;;;;;;;;;;;5051957;28;19909;-78
2022/05/09 04:42:07;;;;;;;;;;;;;;;;;;5041145;28;20544;-79
2022/05/09 04:44:32;;;;;;;;;;;;;;;;;;5058048;28;19991;-78
2022/05/09 04:46:58;;;;;;;;;;;;;;;;;;5035389;28;20011;-78
2022/05/09 04:49:24;;;;;;;;;;;;;;;;;;5035622;28;19913;-77
2022/05/09 04:51:49;;;;;;;;;;;;;;;;;;5040212;28;19967;-78
2022/05/09 04:54:16;;;;;;;;;;;;;;;;;;5053085;28;19920;-79
2022/05/09 04:56:41;;;;;;;;;;;;;;;;;;5048999;28;19944;-78
2022/05/09 04:59:07;;;;;;;;;;;;;;;;;;5053223;28;19956;-81
2022/05/09 05:01:32;;;;;;;;;;;;;;;;;;5045135;28;19924;-83
2022/05/09 05:04:00;;;;;;;;;;;;;;;;;;5058622;28;19924;-81
2022/05/09 05:06:48;;;;;;;;;;;;;;;;;;5052726;28;19923;-79
2022/05/09 05:09:14;;;;;;;;;;;;;;;;;;5050686;28;19929;-78
2022/05/09 05:11:39;;;;;;;;;;;;;;;;;;5046608;28;19920;-77
2022/05/09 05:14:05;;;;;;;;;;;;;;;;;;5044156;28;19963;-76
2022/05/09 05:19:27;;;;;;;;;;;;;;;;;;5045423;28;19927;-79
2022/05/09 05:21:52;;;;;;;;;;;;;;;;;;5036549;28;19923;-78
2022/05/09 05:24:51;;;;;;;;;;;;;;;;;;;;;
2022/05/09 05:27:17;;;;;;;;;;;;;;;;;;5034060;28;19920;-80
2022/05/09 05:29:42;;;;;;;;;;;;;;;;;;5044690;28;19923;-79
2022/05/09 05:32:19;;;;;;;;;;;;;;;;;;5050359;28;20526;-78
2022/05/09 05:34:45;;;;;;;;;;;;;;;;;;5047266;28;20314;-79
2022/05/09 05:37:10;;;;;;;;;;;;;;;;;;5048203;28;19970;-83
2022/05/09 05:39:42;;;;;;;;;;;;;;;;;;5051214;28;20301;-78
2022/05/09 05:42:20;;;;;;;;;;;;;;;;;;;;;
2022/05/09 05:44:46;;;;;;;;;;;;;;;;;;5050647;28;19927;-78
2022/05/09 05:47:13;;;;;;;;;;;;;;;;;;5048758;28;20361;-82
2022/05/09 05:49:39;;;;;;;;;;;;;;;;;;5049156;28;20007;-80
2022/05/09 05:52:05;;;;;;;;;;;;;;;;;;5049846;28;20314;-81
2022/05/09 05:54:34;;;;;;;;;;;;;;;;;;5044256;28;19916;-79
2022/05/09 05:57:00;;;;;;;;;;;;;;;;;;5046988;28;19927;-78
2022/05/09 05:59:25;;;;;;;;;;;;;;;;;;5046180;28;20266;-78
2022/05/09 06:01:51;;;;;;;;;;;;;;;;;;5043656;28;19923;-76
2022/05/09 06:04:17;;;;;;;;;;;;;;;;;;5045026;28;19912;-76
2022/05/09 06:06:43;;;;;;;;;;;;;;;;;;5049133;28;19928;-77
2022/05/09 06:09:09;;;;;;;;;;;;;;;;;;5051087;28;19999;-77
2022/05/09 06:11:35;;;;;;;;;;;;;;;;;;5042518;28;20346;-77
2022/05/09 06:14:03;;;;;;;;;;;;;;;;;;5046239;28;19916;-80
2022/05/09 06:16:32;;;;;;;;;;;;;;;;;;5049677;28;19950;-79
2022/05/09 06:18:59;;;;;;;;;;;;;;;;;;5048442;28;19967;-82
2022/05/09 06:21:24;;;;;;;;;;;;;;;;;;5036776;28;19920;-79
2022/05/09 06:23:50;;;;;;;;;;;;;;;;;;5053397;28;19916;-81
2022/05/09 06:26:15;;;;;;;;;;;;;;;;;;5050809;28;19959;-79
2022/05/09 06:28:41;;;;;;;;;;;;;;;;;;5051411;28;20264;-81
2022/05/09 06:31:06;;;;;;;;;;;;;;;;;;5052168;28;19924;-78
2022/05/09 06:33:32;;;;;;;;;;;;;;;;;;5051730;28;20253;-79
2022/05/09 06:35:57;;;;;;;;;;;;;;;;;;5052897;28;19948;-78
2022/05/09 06:38:38;;;;;;;;;;;;;;;;;;5051207;28;19917;-79
2022/05/09 06:41:21;;;;;;;;;;;;;;;;;;5048610;28;19928;-79
2022/05/09 06:43:47;;;;;;;;;;;;;;;;;;5047137;28;19947;-80
2022/05/09 06:46:12;;;;;;;;;;;;;;;;;;5042044;28;19917;-79
2022/05/09 06:48:38;;;;;;;;;;;;;;;;;;5042895;28;20346;-80
2022/05/09 06:51:15;;;;;;;;;;;;;;;;;;5047246;28;19924;-82
2022/05/09 06:53:40;;;;;;;;;;;;;;;;;;5036291;28;19917;-77
2022/05/09 06:56:06;;;;;;;;;;;;;;;;;;5044637;28;19965;-79
2022/05/09 06:58:31;;;;;;;;;;;;;;;;;;5042290;28;19924;-80
2022/05/09 07:00:57;;;;;;;;;;;;;;;;;;5046037;28;20037;-81
2022/05/09 07:03:22;;;;;;;;;;;;;;;;;;5051482;28;19939;-82
2022/05/09 07:05:49;;;;;;;;;;;;;;;;;;5046331;28;20311;-80
2022/05/09 07:08:14;;;;;;;;;;;;;;;;;;5050628;28;19967;-78
2022/05/09 07:10:40;;;;;;;;;;;;;;;;;;5051169;28;19952;-78
2022/05/09 07:13:06;;;;;;;;;;;;;;;;;;5039277;28;20004;-79
2022/05/09 07:15:31;;;;;;;;;;;;;;;;;;5042870;28;20187;-78
2022/05/09 07:18:03;;;;;;;;;;;;;;;;;;5039365;28;19912;-81
2022/05/09 07:20:30;;;;;;;;;;;;;;;;;;5034636;28;19923;-79
2022/05/09 07:22:56;;;;;;;;;;;;;;;;;;5069476;28;19923;-79
2022/05/09 07:25:22;;;;;;;;;;;;;;;;;;5049304;28;20379;-80
2022/05/09 07:27:47;;;;;;;;;;;;;;;;;;5054513;28;19920;-81
2022/05/09 07:30:13;;;;;;;;;;;;;;;;;;5052631;28;20310;-81
2022/05/09 07:32:39;;;;;;;;;;;;;;;;;;5051169;28;19921;-79
2022/05/09 07:35:08;;;;;;;;;;;;;;;;;;5045181;28;19990;-77
2022/05/09 07:37:33;;;;;;;;;;;;;;;;;;5050826;28;19917;-77
2022/05/09 07:39:59;;;;;;;;;;;;;;;;;;5035871;28;19983;-77
2022/05/09 07:42:24;;;;;;;;;;;;;;;;;;5050049;28;20095;-79
2022/05/09 07:44:52;;;;;;;;;;;;;;;;;;5060747;28;20391;-79
2022/05/09 07:47:18;;;;;;;;;;;;;;;;;;5055101;28;19936;-81
2022/05/09 07:49:46;;;;;;;;;;;;;;;;;;5055591;28;20334;-79
2022/05/09 07:52:12;;;;;;;;;;;;;;;;;;5051604;28;19958;-79
2022/05/09 07:54:38;;;;;;;;;;;;;;;;;;5038730;28;19952;-79
2022/05/09 07:57:03;;;;;;;;;;;;;;;;;;5037605;28;20000;-81
2022/05/09 07:59:29;;;;;;;;;;;;;;;;;;5059427;28;20050;-78
2022/05/09 08:01:55;;;;;;;;;;;;;;;;;;5051191;28;19917;-79
2022/05/09 08:04:21;;;;;;;;;;;;;;;;;;5046672;28;19921;-80
2022/05/09 08:06:46;;;;;;;;;;;;;;;;;;5046931;28;20058;-78
2022/05/09 08:09:11;;;;;;;;;;;;;;;;;;5036254;28;19913;-78
2022/05/09 08:11:38;;;;;;;;;;;;;;;;;;5043995;28;19927;-78
2022/05/09 08:14:03;;;;;;;;;;;;;;;;;;5052477;28;19923;-82
2022/05/09 08:16:30;;;;;;;;;;;;;;;;;;5046893;28;19917;-81
2022/05/09 08:18:56;;;;;;;;;;;;;;;;;;5037286;28;20005;-80
2022/05/09 08:21:22;;;;;;;;;;;;;;;;;;5050021;28;19912;-78
2022/05/09 08:23:48;;;;;;;;;;;;;;;;;;5059432;28;20012;-77
2022/05/09 08:26:32;;;;;;;;;;;;;;;;;;5063726;28;19925;-84
2022/05/09 08:28:57;;;;;;;;;;;;;;;;;;5038135;28;19975;-81
2022/05/09 08:31:23;;;;;;;;;;;;;;;;;;5051666;28;19916;-82
2022/05/09 08:33:52;;;;;;;;;;;;;;;;;;5038791;28;21599;-82
2022/05/09 08:39:05;;;;;;;;;;;;;;;;;;5042227;28;20031;-80
2022/05/09 08:41:35;;;;;;;;;;;;;;;;;;5047133;28;20252;-79
2022/05/09 08:44:18;;;;;;;;;;;;;;;;;;5049242;28;19917;-79
2022/05/09 08:47:03;;;;;;;;;;;;;;;;;;5052342;28;19939;-80
2022/05/09 08:49:28;;;;;;;;;;;;;;;;;;5056989;28;19925;-78
2022/05/09 08:51:55;;;;;;;;;;;;;;;;;;5059565;28;19923;-81
2022/05/09 08:54:21;;;;;;;;;;;;;;;;;;5058967;28;19917;-79
2022/05/09 08:56:47;;;;;;;;;;;;;;;;;;5056495;28;19923;-78
2022/05/09 08:59:13;;;;;;;;;;;;;;;;;;5053906;28;19916;-77
2022/05/09 09:01:46;;;;;;;;;;;;;;;;;;5069931;28;19916;-82
2022/05/09 09:04:18;;;;;;;;;;;;;;;;;;5042667;28;19924;-80
2022/05/09 09:06:47;;;;;;;;;;;;;;;;;;5043711;28;19917;-78
2022/05/09 09:09:33;;;;;;;;;;;;;;;;;;5051316;28;19917;-84
2022/05/09 09:12:04;;;;;;;;;;;;;;;;;;5046420;28;19991;-79
2022/05/09 09:14:32;;;;;;;;;;;;;;;;;;5052407;28;19917;-81
2022/05/09 09:16:58;;;;;;;;;;;;;;;;;;5052855;28;19974;-80
2022/05/09 09:19:39;;;;;;;;;;;;;;;;;;5042561;28;19913;-80
2022/05/09 09:22:04;;;;;;;;;;;;;;;;;;5042815;28;20575;-77
2022/05/09 09:24:46;;;;;;;;;;;;;;;;;;5040072;28;19925;-79
2022/05/09 09:27:11;;;;;;;;;;;;;;;;;;5043573;28;19916;-77
2022/05/09 09:29:42;;;;;;;;;;;;;;;;;;5051855;28;19978;-80
2022/05/09 09:32:12;;;;;;;;;;;;;;;;;;5045818;28;20412;-79
2022/05/09 09:34:48;;;;;;;;;;;;;;;;;;5047204;28;19971;-78
2022/05/09 09:37:17;;;;;;;;;;;;;;;;;;5050597;28;19920;-79
2022/05/09 09:39:42;;;;;;;;;;;;;;;;;;5040511;28;19912;-81
2022/05/09 09:42:08;;;;;;;;;;;;;;;;;;5041936;28;19928;-79
2022/05/09 09:44:34;;;;;;;;;;;;;;;;;;5048839;28;19982;-82
2022/05/09 09:47:18;;;;;;;;;;;;;;;;;;5036747;28;19916;-80
2022/05/09 09:49:44;;;;;;;;;;;;;;;;;;5048458;28;19955;-80
2022/05/09 09:52:46;;;;;;;;;;;;;;;;;;5023334;28;19932;-78
2022/05/09 09:55:24;;;;;;;;;;;;;;;;;;5045992;28;19923;-77
2022/05/09 09:57:49;;;;;;;;;;;;;;;;;;5046184;28;19908;-78
2022/05/09 10:00:17;;;;;;;;;;;;;;;;;;5044823;28;19947;-77
2022/05/09 10:02:42;;;;;;;;;;;;;;;;;;5050611;28;19919;-77
2022/05/09 10:05:09;;;;;;;;;;;;;;;;;;5055939;28;19925;-77
2022/05/09 10:07:39;;;;;;;;;;;;;;;;;;5056592;28;19912;-80
2022/05/09 10:10:20;;;;;;;;;;;;;;;;;;5049748;28;20267;-79
2022/05/09 10:12:51;;;;;;;;;;;;;;;;;;5051343;28;20318;-80
2022/05/09 10:15:19;;;;;;;;;;;;;;;;;;5048489;28;19916;-78
2022/05/09 10:17:45;;;;;;;;;;;;;;;;;;5056335;28;20304;-78
2022/05/09 10:20:33;;;;;;;;;;;;;;;;;;5057125;28;19947;-81
2022/05/09 10:26:28;;;;;;;;;;;;;;;;;;5054934;28;19970;-81
2022/05/09 10:29:02;;;;;;;;;;;;;;;;;;5071738;28;19916;-82
2022/05/09 10:31:30;;;;;;;;;;;;;;;;;;5054762;28;20322;-80
2022/05/09 10:34:06;;;;;;;;;;;;;;;;;;5055107;28;19913;-76
2022/05/09 10:36:36;;;;;;;;;;;;;;;;;;5046007;28;19928;-78
2022/05/09 10:39:09;;;;;;;;;;;;;;;;;;5045834;28;20004;-77
2022/05/09 10:41:48;;;;;;;;;;;;;;;;;;5053158;28;19916;-78
2022/05/09 10:44:34;;;;;;;;;;;;;;;;;;5052003;28;19928;-77
2022/05/09 10:47:07;;;;;;;;;;;;;;;;;;5055129;28;19917;-78
2022/05/09 10:50:01;;;;;;;;;;;;;;;;;;5047507;28;20022;-81
2022/05/09 10:52:33;;;;;;;;;;;;;;;;;;5050009;28;19916;-82
2022/05/09 10:55:21;;;;;;;;;;;;;;;;;;5048652;28;19925;-81
2022/05/09 10:57:49;;;;;;;;;;;;;;;;;;5041267;28;20012;-81
2022/05/09 11:00:19;;;;;;;;;;;;;;;;;;5046588;28;19917;-77
2022/05/09 11:03:00;;;;;;;;;;;;;;;;;;5046502;28;19959;-80
2022/05/09 11:05:26;;;;;;;;;;;;;;;;;;5043800;28;19923;-77
2022/05/09 11:08:04;;;;;;;;;;;;;;;;;;5065672;28;19924;-79
2022/05/09 11:10:49;;;;;;;;;;;;;;;;;;5042314;28;20007;-76
2022/05/09 11:13:30;;;;;;;;;;;;;;;;;;5044963;28;19921;-77
2022/05/09 11:15:55;;;;;;;;;;;;;;;;;;5046277;28;20051;-79
2022/05/09 11:18:25;;;;;;;;;;;;;;;;;;5055467;28;20056;-79
2022/05/09 11:21:19;;;;;;;;;;;;;;;;;;5053137;28;19917;-79
2022/05/09 11:23:48;;;;;;;;;;;;;;;;;;5030586;28;19917;-78
2022/05/09 11:26:22;;;;;;;;;;;;;;;;;;5060824;28;19931;-77
2022/05/09 11:28:53;;;;;;;;;;;;;;;;;;5043078;28;19917;-80
2022/05/09 11:31:32;;;;;;;;;;;;;;;;;;5051854;28;19963;-77
2022/05/09 11:34:01;;;;;;;;;;;;;;;;;;5049457;28;19998;-78
2022/05/09 11:36:45;;;;;;;;;;;;;;;;;;5056604;28;19951;-78
2022/05/09 11:39:30;;;;;;;;;;;;;;;;;;5056150;28;19912;-81
2022/05/09 11:41:59;;;;;;;;;;;;;;;;;;5045284;28;19913;-78
2022/05/09 11:44:37;;;;;;;;;;;;;;;;;;5056522;28;19912;-78
2022/05/09 11:47:05;;;;;;;;;;;;;;;;;;5058276;28;19919;-78
2022/05/09 11:49:49;;;;;;;;;;;;;;;;;;5059447;28;19919;-79
2022/05/09 11:52:25;;;;;;;;;;;;;;;;;;5058096;28;20003;-82
2022/05/09 11:54:51;;;;;;;;;;;;;;;;;;5056306;28;20322;-78
2022/05/09 11:57:32;;;;;;;;;;;;;;;;;;5057814;28;19970;-81
2022/05/09 11:59:58;;;;;;;;;;;;;;;;;;5058343;28;20322;-80
2022/05/09 12:02:42;;;;;;;;;;;;;;;;;;5059891;28;19963;-79
2022/05/09 12:05:26;;;;;;;;;;;;;;;;;;5060580;28;20391;-81
2022/05/09 12:08:14;;;;;;;;;;;;;;;;;;5062147;28;19913;-78
2022/05/09 12:10:41;;;;;;;;;;;;;;;;;;5051987;28;20230;-80
2022/05/09 12:13:06;;;;;;;;;;;;;;;;;;5060421;28;19916;-78
2022/05/09 12:15:33;;;;;;;;;;;;;;;;;;5060779;28;20387;-79
2022/05/09 12:17:58;;;;;;;;;;;;;;;;;;5060983;28;19912;-79
2022/05/09 12:20:26;;;;;;;;;;;;;;;;;;5060955;28;19920;-78
2022/05/09 12:22:56;;;;;;;;;;;;;;;;;;5057257;28;20327;-80
2022/05/09 12:25:36;;;;;;;;;;;;;;;;;;5061219;28;19912;-79
2022/05/09 12:28:20;;;;;;;;;;;;;;;;;;5053733;28;20485;-81
2022/05/09 12:30:56;;;;;;;;;;;;;;;;;;5054360;28;20250;-80
2022/05/09 12:34:01;;;;;;;;;;;;;;;;;;5057091;28;19919;-81
2022/05/09 12:36:27;;;;;;;;;;;;;;;;;;4995475;28;19964;-80
2022/05/09 12:38:57;;;;;;;;;;;;;;;;;;4995594;28;20000;-78
2022/05/09 12:41:23;;;;;;;;;;;;;;;;;;5014442;28;19920;-80
2022/05/09 12:43:50;;;;;;;;;;;;;;;;;;5054346;28;19917;-81
2022/05/09 12:46:50;;;;;;;;;;;;;;;;;;5057550;28;19913;-80
2022/05/09 12:49:17;;;;;;;;;;;;;;;;;;4993989;28;19914;-77
2022/05/09 12:51:43;;;;;;;;;;;;;;;;;;5043205;28;19913;-81
2022/05/09 12:54:09;;;;;;;;;;;;;;;;;;5055118;28;19917;-81
2022/05/09 12:56:37;;;;;;;;;;;;;;;;;;5055419;28;19924;-80
2022/05/09 12:59:06;;;;;;;;;;;;;;;;;;5054194;28;20039;-81
2022/05/09 13:01:31;;;;;;;;;;;;;;;;;;5037771;28;19956;-78
2022/05/09 13:03:58;;;;;;;;;;;;;;;;;;5055074;28;19948;-80
2022/05/09 13:06:26;;;;;;;;;;;;;;;;;;5056233;28;19970;-79
2022/05/09 13:08:51;;;;;;;;;;;;;;;;;;5055094;28;19974;-80
2022/05/09 13:11:30;;;;;;;;;;;;;;;;;;5056073;28;19917;-79
2022/05/09 13:14:05;;;;;;;;;;;;;;;;;;5054807;28;19971;-82
2022/05/09 13:16:35;;;;;;;;;;;;;;;;;;5056495;28;19912;-80
2022/05/09 13:19:01;;;;;;;;;;;;;;;;;;5055091;28;19919;-81
2022/05/09 13:21:28;;;;;;;;;;;;;;;;;;5055021;28;20347;-80
2022/05/09 13:23:53;;;;;;;;;;;;;;;;;;5056135;28;19916;-81
2022/05/09 13:26:23;;;;;;;;;;;;;;;;;;5055993;28;19919;-78
2022/05/09 13:28:50;;;;;;;;;;;;;;;;;;5055263;28;20023;-81
2022/05/09 13:31:36;;;;;;;;;;;;;;;;;;5055051;28;19920;-79
2022/05/09 13:34:01;;;;;;;;;;;;;;;;;;5045170;28;19913;-80
2022/05/09 13:36:33;;;;;;;;;;;;;;;;;;5055193;28;20257;-80
2022/05/09 13:38:58;;;;;;;;;;;;;;;;;;5056002;28;19940;-81
2022/05/09 13:41:28;;;;;;;;;;;;;;;;;;5055922;28;20322;-78
2022/05/09 13:43:54;;;;;;;;;;;;;;;;;;5056151;28;19946;-77
2022/05/09 13:46:26;;;;;;;;;;;;;;;;;;5038500;28;20258;-78
2022/05/09 13:48:52;;;;;;;;;;;;;;;;;;5057272;28;19920;-80
2022/05/09 13:51:24;;;;;;;;;;;;;;;;;;5054821;28;19912;-80
2022/05/09 13:53:51;;;;;;;;;;;;;;;;;;5054802;28;19912;-78
2022/05/09 13:56:16;;;;;;;;;;;;;;;;;;5071335;28;20242;-78
2022/05/09 13:58:42;;;;;;;;;;;;;;;;;;5054663;28;19919;-78
2022/05/09 14:01:09;;;;;;;;;;;;;;;;;;5054864;28;19923;-80
2022/05/09 14:03:45;;;;;;;;;;;;;;;;;;5057594;28;19922;-82
2022/05/09 14:06:20;;;;;;;;;;;;;;;;;;5062174;28;19912;-86
2022/05/09 14:08:46;;;;;;;;;;;;;;;;;;5064492;28;19909;-82
2022/05/09 14:11:12;;;;;;;;;;;;;;;;;;5065407;28;19903;-83
2022/05/09 14:13:42;;;;;;;;;;;;;;;;;;5066908;28;19917;-85
2022/05/09 14:16:08;;;;;;;;;;;;;;;;;;5065138;28;19896;-83
2022/05/09 14:18:34;;;;;;;;;;;;;;;;;;5064361;28;19963;-83
2022/05/09 14:21:02;;;;;;;;;;;;;;;;;;5064413;28;19959;-82
2022/05/09 14:23:28;;;;;;;;;;;;;;;;;;5060138;28;19913;-83
2022/05/09 14:31:22;;;;;;;;;;;;;;;;;;5063766;28;19920;-84
2022/05/09 14:33:48;;;;;;;;;;;;;;;;;;5056899;28;19943;-82
2022/05/09 14:36:29;;;;;;;;;;;;;;;;;;5060912;28;19913;-86
2022/05/09 14:38:58;;;;;;;;;;;;;;;;;;5060490;28;19962;-83
2022/05/09 14:41:37;;;;;;;;;;;;;;;;;;5057300;28;19912;-84
2022/05/09 14:44:21;;;;;;;;;;;;;;;;;;5056155;28;19919;-83
2022/05/09 14:46:53;;;;;;;;;;;;;;;;;;5056012;28;20359;-84
2022/05/09 14:49:18;;;;;;;;;;;;;;;;;;5062823;28;20314;-83
2022/05/09 14:51:54;;;;;;;;;;;;;;;;;;5058895;28;19912;-84
2022/05/09 14:54:20;;;;;;;;;;;;;;;;;;5061240;28;20384;-86
2022/05/09 14:59:31;;;;;;;;;;;;;;;;;;5056625;28;19935;-84
2022/05/09 15:02:01;;;;;;;;;;;;;;;;;;5056442;28;20245;-84
2022/05/09 15:04:27;;;;;;;;;;;;;;;;;;5059476;28;19963;-84
2022/05/09 15:06:53;;;;;;;;;;;;;;;;;;5057281;28;19919;-85
2022/05/09 15:09:19;;;;;;;;;;;;;;;;;;5059360;28;19956;-86
2022/05/09 15:11:44;;;;;;;;;;;;;;;;;;5081807;28;19897;-83
2022/05/09 15:14:11;;;;;;;;;;;;;;;;;;5059328;28;19923;-85
2022/05/09 15:16:37;;;;;;;;;;;;;;;;;;5063515;28;19913;-85
2022/05/09 15:19:02;;;;;;;;;;;;;;;;;;5061520;28;19909;-85
2022/05/09 15:21:28;;;;;;;;;;;;;;;;;;5041629;28;19913;-86
2022/05/09 15:23:53;;;;;;;;;;;;;;;;;;5056649;28;19999;-85
2022/05/09 15:26:20;;;;;;;;;;;;;;;;;;5057717;28;20308;-85
2022/05/09 15:28:48;;;;;;;;;;;;;;;;;;5062585;28;19901;-86
2022/05/09 15:31:14;;;;;;;;;;;;;;;;;;5072203;28;19917;-86
2022/05/09 15:33:39;;;;;;;;;;;;;;;;;;5067265;28;19912;-83
2022/05/09 15:36:05;;;;;;;;;;;;;;;;;;5047488;28;19913;-83
2022/05/09 15:38:30;;;;;;;;;;;;;;;;;;5060193;28;19972;-85
2022/05/09 15:40:59;;;;;;;;;;;;;;;;;;5068012;28;19960;-85
2022/05/09 15:43:29;;;;;;;;;;;;;;;;;;5071334;28;19916;-85
2022/05/09 15:45:54;;;;;;;;;;;;;;;;;;5071154;28;19901;-83
2022/05/09 15:48:20;;;;;;;;;;;;;;;;;;5074530;28;19925;-82
2022/05/09 15:50:45;;;;;;;;;;;;;;;;;;5075213;28;19975;-82
2022/05/09 15:53:12;;;;;;;;;;;;;;;;;;5073642;28;19979;-86
2022/05/09 15:55:39;;;;;;;;;;;;;;;;;;5082228;28;19938;-87
2022/05/09 15:58:04;;;;;;;;;;;;;;;;;;5056175;28;19913;-86
2022/05/09 16:00:30;;;;;;;;;;;;;;;;;;5057733;28;19913;-86
2022/05/09 16:02:56;;;;;;;;;;;;;;;;;;5056073;28;19913;-86
2022/05/09 16:05:21;;;;;;;;;;;;;;;;;;5058307;28;19960;-82
2022/05/09 16:13:15;;;;;;;;;;;;;;;;;;5061939;28;19951;-85
2022/05/09 16:15:40;;;;;;;;;;;;;;;;;;5062566;28;19912;-83
2022/05/09 16:18:15;;;;;;;;;;;;;;;;;;5061187;28;19908;-85
2022/05/09 16:20:40;;;;;;;;;;;;;;;;;;5074982;28;19896;-87
2022/05/09 16:23:06;;;;;;;;;;;;;;;;;;5074240;28;19920;-85
2022/05/09 16:25:31;;;;;;;;;;;;;;;;;;5052473;28;19912;-87
2022/05/09 16:27:57;;;;;;;;;;;;;;;;;;5075467;28;19920;-86
2022/05/09 16:30:30;;;;;;;;;;;;;;;;;;5084667;28;19912;-85
2022/05/09 16:32:56;;;;;;;;;;;;;;;;;;5063940;28;19913;-86
2022/05/09 16:35:21;;;;;;;;;;;;;;;;;;5060393;28;19913;-87
2022/05/09 16:37:47;;;;;;;;;;;;;;;;;;5058838;28;19919;-86
2022/05/09 16:40:13;;;;;;;;;;;;;;;;;;5060395;28;19970;-87
2022/05/09 16:42:40;;;;;;;;;;;;;;;;;;5059881;28;19963;-85
2022/05/09 16:45:09;;;;;;;;;;;;;;;;;;5059833;28;19947;-87
2022/05/09 16:47:36;;;;;;;;;;;;;;;;;;5058890;28;19913;-87
2022/05/09 16:50:02;;;;;;;;;;;;;;;;;;5040666;28;19981;-87
2022/05/09 16:52:29;;;;;;;;;;;;;;;;;;5058993;28;19913;-86
2022/05/09 16:54:54;;;;;;;;;;;;;;;;;;5057501;28;19951;-87
2022/05/09 16:57:20;;;;;;;;;;;;;;;;;;5058634;28;19912;-86
2022/05/09 16:59:46;;;;;;;;;;;;;;;;;;5058439;28;19923;-87
2022/05/09 17:02:11;;;;;;;;;;;;;;;;;;5056390;28;19913;-86
2022/05/09 17:04:37;;;;;;;;;;;;;;;;;;5059931;28;19918;-87
2022/05/09 17:07:02;;;;;;;;;;;;;;;;;;5058338;28;20306;-87
2022/05/09 17:09:28;;;;;;;;;;;;;;;;;;5057342;28;20019;-86
2022/05/09 17:11:53;;;;;;;;;;;;;;;;;;5065245;28;20433;-84
2022/05/09 17:14:18;;;;;;;;;;;;;;;;;;5057361;28;20258;-86
2022/05/09 17:16:45;;;;;;;;;;;;;;;;;;5059589;28;19912;-86
2022/05/09 17:19:10;;;;;;;;;;;;;;;;;;5060473;28;20310;-86
2022/05/09 17:21:37;;;;;;;;;;;;;;;;;;5059603;28;19919;-87
2022/05/09 17:24:02;;;;;;;;;;;;;;;;;;5057964;28;19955;-86
2022/05/09 17:26:27;;;;;;;;;;;;;;;;;;5059279;28;19912;-86